Time;durP1;ratioP1;P1;durP2;ratioP2;P2;SDS_P1;SDS_P2;PMS_P1;PMS_P2;Temp;Humidity;BMP_temperature;BMP_pressure;BME280_temperature;BME280_humidity;BME280_pressure;Samples;Min_cycle;Max_cycle;Signal;HPM_P1;HPM_P2
2021/01/19 00:03:16;;;;;;;4.00;2.73;;;;;;;5.04;58.56;98366.84;8346102;28;20196;-78
2021/01/19 00:07:17;;;;;;;7.30;3.00;;;;;;;5.06;58.21;98373.66;8337620;28;20602;-78
2021/01/19 00:11:19;;;;;;;5.67;2.77;;;;;;;5.12;57.97;98374.41;8337528;28;20567;-78
2021/01/19 00:15:21;;;;;;;7.17;2.83;;;;;;;5.15;58.09;98364.94;8337831;28;20212;-78
2021/01/19 00:19:23;;;;;;;5.47;2.80;;;;;;;5.18;57.97;98369.19;8336494;28;20220;-78
2021/01/19 00:23:25;;;;;;;6.90;3.10;;;;;;;5.21;57.90;98362.28;8337423;28;20562;-78
2021/01/19 00:27:27;;;;;;;6.23;3.10;;;;;;;5.06;57.69;98360.81;8337776;28;20197;-78
2021/01/19 00:31:28;;;;;;;6.40;3.03;;;;;;;5.12;58.27;98356.44;8336344;28;20223;-78
2021/01/19 00:35:31;;;;;;;6.03;3.30;;;;;;;5.07;58.11;98356.53;8336078;28;20231;-78
2021/01/19 00:39:33;;;;;;;5.73;2.90;;;;;;;5.24;57.29;98358.81;8336342;28;20555;-78
2021/01/19 00:43:34;;;;;;;7.20;3.20;;;;;;;5.31;58.03;98346.72;8355260;28;20227;-78
2021/01/19 00:47:39;;;;;;;5.00;2.80;;;;;;;5.27;57.87;98358.75;8369427;28;20207;-78
2021/01/19 00:51:41;;;;;;;6.17;2.60;;;;;;;5.34;57.42;98346.69;8369140;28;20203;-78
2021/01/19 00:55:43;;;;;;;5.57;2.40;;;;;;;5.27;57.22;98340.78;8368735;28;20200;-77
2021/01/19 00:59:45;;;;;;;6.87;2.70;;;;;;;5.29;57.63;98344.16;8368257;28;20207;-78
2021/01/19 01:03:46;;;;;;;6.00;2.47;;;;;;;5.16;57.57;98340.97;8367648;28;20214;-77
2021/01/19 01:07:49;;;;;;;6.17;2.70;;;;;;;5.27;57.17;98333.94;8375434;28;20231;-79
2021/01/19 01:11:51;;;;;;;5.63;2.50;;;;;;;5.09;57.65;98332.53;8382572;28;20208;-79
2021/01/19 01:15:52;;;;;;;6.33;2.37;;;;;;;5.18;57.46;98323.81;8377526;28;20203;-79
2021/01/19 01:19:54;;;;;;;5.40;2.43;;;;;;;5.31;56.78;98326.16;8376417;28;20651;-79
2021/01/19 01:23:57;;;;;;;4.83;2.13;;;;;;;5.33;56.89;98327.00;8376390;28;20199;-79
2021/01/19 01:27:59;;;;;;;5.00;2.07;;;;;;;5.15;57.51;98318.72;8375432;28;20204;-79
2021/01/19 01:32:01;;;;;;;6.93;2.47;;;;;;;5.12;56.98;98311.06;8378693;28;20204;-79
2021/01/19 01:36:03;;;;;;;4.93;2.07;;;;;;;5.20;56.96;98314.38;8381357;28;20222;-79
2021/01/19 01:40:07;;;;;;;7.07;2.30;;;;;;;5.40;56.45;98311.44;8384248;28;20566;-79
2021/01/19 01:44:10;;;;;;;4.30;2.00;;;;;;;5.26;56.42;98309.13;8383975;28;20196;-79
2021/01/19 01:48:12;;;;;;;7.80;2.07;;;;;;;5.40;56.58;98315.75;8377854;28;20223;-79
2021/01/19 01:52:14;;;;;;;6.87;2.17;;;;;;;5.38;56.40;98314.94;8379846;28;20294;-80
2021/01/19 01:56:20;;;;;;;7.90;2.10;;;;;;;5.43;55.89;98305.44;8391699;28;20210;-80
2021/01/19 02:00:22;;;;;;;5.50;2.00;;;;;;;5.48;56.00;98306.16;8388121;28;20203;-80
2021/01/19 02:04:24;;;;;;;6.57;2.33;;;;;;;5.52;55.58;98297.56;8384879;28;20212;-80
2021/01/19 02:08:38;;;;;;;7.80;2.70;;;;;;;5.47;55.76;98286.50;8382853;28;20243;-79
2021/01/19 02:12:47;;;;;;;5.30;2.10;;;;;;;5.40;55.45;98282.34;8381512;28;20200;-79
2021/01/19 02:17:00;;;;;;;4.83;1.90;;;;;;;5.43;55.98;98290.00;8380643;28;20204;-79
2021/01/19 02:21:33;;;;;;;5.17;2.13;;;;;;;5.34;56.14;98290.19;8381929;28;20200;-80
2021/01/19 02:25:58;;;;;;;4.80;1.90;;;;;;;5.30;55.90;98279.09;8385653;28;20199;-80
2021/01/19 02:30:12;;;;;;;7.73;2.23;;;;;;;5.32;56.01;98272.22;8385804;28;20212;-80
2021/01/19 02:34:21;;;;;;;4.47;1.90;;;;;;;5.34;55.86;98273.03;8385420;28;20228;-80
2021/01/19 02:38:30;;;;;;;6.27;1.97;;;;;;;5.40;55.67;98277.22;8381775;28;20643;-79
2021/01/19 02:42:37;;;;;;;6.57;2.47;;;;;;;5.44;55.66;98276.28;8378942;28;20202;-79
2021/01/19 02:46:38;;;;;;;4.10;2.07;;;;;;;5.35;55.90;98272.19;8379291;28;20580;-80
2021/01/19 02:50:41;;;;;;;5.53;2.07;;;;;;;5.37;55.50;98262.72;8385598;28;20230;-79
2021/01/19 02:54:44;;;;;;;5.43;2.53;;;;;;;5.08;56.21;98269.22;8387032;28;20200;-80
2021/01/19 02:58:56;;;;;;;5.77;2.40;;;;;;;5.12;56.10;98262.28;8384771;28;20199;-79
2021/01/19 03:02:59;;;;;;;6.23;2.40;;;;;;;5.10;56.12;98269.19;8364689;28;20594;-80
2021/01/19 03:07:05;;;;;;;6.17;2.23;;;;;;;5.19;55.61;98261.31;8355397;28;20242;-79
2021/01/19 03:11:07;;;;;;;4.83;2.40;;;;;;;4.90;55.69;98261.84;8360072;28;20224;-80
2021/01/19 03:15:10;;;;;;;5.97;2.20;;;;;;;5.03;56.10;98253.06;8364592;28;20192;-80
2021/01/19 03:19:12;;;;;;;5.00;2.60;;;;;;;5.21;55.44;98249.28;8346581;28;20204;-79
2021/01/19 03:23:15;;;;;;;4.17;2.20;;;;;;;5.13;55.29;98242.63;8349554;28;20209;-79
2021/01/19 03:27:17;;;;;;;4.53;2.17;;;;;;;5.15;55.22;98246.00;8351236;28;20573;-79
2021/01/19 03:31:18;;;;;;;5.83;2.73;;;;;;;5.08;55.09;98245.25;8350195;28;20235;-79
2021/01/19 03:35:20;;;;;;;7.37;2.70;;;;;;;5.03;55.33;98250.47;8345515;28;20563;-78
2021/01/19 03:39:25;;;;;;;4.80;2.30;;;;;;;5.07;55.17;98241.84;8342604;28;20584;-78
2021/01/19 03:43:27;;;;;;;4.30;2.30;;;;;;;5.02;55.22;98242.81;8346776;28;20204;-79
2021/01/19 03:47:28;;;;;;;5.43;2.50;;;;;;;5.05;55.58;98235.91;8345663;28;20211;-79
2021/01/19 03:51:30;;;;;;;5.27;2.57;;;;;;;4.82;55.67;98238.88;8345679;28;20225;-79
2021/01/19 03:55:33;;;;;;;3.93;2.37;;;;;;;5.10;55.23;98230.66;8346766;28;20201;-79
2021/01/19 03:59:38;;;;;;;5.33;2.80;;;;;;;4.93;54.71;98243.81;8347114;28;20239;-79
2021/01/19 04:03:40;;;;;;;6.97;2.77;;;;;;;4.94;55.03;98235.25;8372978;28;20275;-79
2021/01/19 04:07:42;;;;;;;5.20;2.27;;;;;;;5.01;55.06;98225.72;8380478;28;20223;-79
2021/01/19 04:11:45;;;;;;;3.37;2.40;;;;;;;5.02;54.92;98219.69;8380365;28;20223;-79
2021/01/19 04:15:50;;;;;;;4.13;2.20;;;;;;;5.03;54.80;98211.13;8376974;28;20573;-79
2021/01/19 04:19:52;;;;;;;4.70;2.30;;;;;;;5.07;54.61;98210.22;8375454;28;20211;-79
2021/01/19 04:23:56;;;;;;;4.27;2.70;;;;;;;4.93;54.74;98202.75;8385019;28;20203;-79
2021/01/19 04:27:59;;;;;;;6.97;2.90;;;;;;;4.97;55.00;98209.53;8385197;28;20208;-79
2021/01/19 04:32:01;;;;;;;5.63;2.23;;;;;;;5.06;54.46;98203.38;8383556;28;20230;-79
2021/01/19 04:36:03;;;;;;;5.80;2.47;;;;;;;4.85;55.02;98200.31;8377720;28;20659;-78
2021/01/19 04:40:06;;;;;;;4.60;2.30;;;;;;;5.01;54.45;98200.91;8369419;28;20212;-78
2021/01/19 04:44:09;;;;;;;4.43;2.23;;;;;;;4.93;54.44;98192.50;8370980;28;20644;-79
2021/01/19 04:48:12;;;;;;;4.90;2.40;;;;;;;5.06;54.28;98186.25;8382550;28;20200;-79
2021/01/19 04:52:15;;;;;;;5.27;2.73;;;;;;;5.01;54.50;98185.50;8376053;28;20558;-79
2021/01/19 04:56:21;;;;;;;4.20;2.37;;;;;;;4.99;53.89;98182.09;8371887;28;20208;-79
2021/01/19 05:00:28;;;;;;;3.87;2.00;;;;;;;5.02;54.23;98178.63;8378001;28;20234;-79
2021/01/19 05:04:47;;;;;;;5.07;2.33;;;;;;;4.96;53.93;98174.44;8344897;28;20204;-79
2021/01/19 05:08:55;;;;;;;5.27;2.57;;;;;;;4.88;54.15;98174.59;8341859;28;20885;-79
2021/01/19 05:13:01;;;;;;;4.77;2.37;;;;;;;5.04;53.98;98162.31;8343538;28;20197;-79
2021/01/19 05:17:04;;;;;;;4.43;2.10;;;;;;;5.12;53.35;98153.63;8342363;28;20204;-79
2021/01/19 05:21:07;;;;;;;4.13;2.20;;;;;;;4.81;53.39;98155.03;8345562;28;20246;-79
2021/01/19 05:25:10;;;;;;;5.13;2.23;;;;;;;5.03;53.19;98146.97;8344820;28;20223;-79
2021/01/19 05:29:12;;;;;;;6.00;2.27;;;;;;;5.06;52.63;98142.63;8342239;28;20234;-79
2021/01/19 05:33:15;;;;;;;3.70;2.00;;;;;;;5.08;52.79;98134.88;8344650;28;20274;-79
2021/01/19 05:37:24;;;;;;;5.57;2.10;;;;;;;5.09;52.52;98129.72;8339818;28;20211;-79
2021/01/19 05:41:27;;;;;;;4.97;2.23;;;;;;;5.04;52.69;98126.38;8340552;28;20209;-79
2021/01/19 05:45:31;;;;;;;5.60;2.20;;;;;;;5.13;52.79;98127.09;8341235;28;20207;-79
2021/01/19 05:49:36;;;;;;;6.10;2.40;;;;;;;4.95;52.46;98118.88;8337673;28;20232;-79
2021/01/19 05:53:38;;;;;;;4.63;2.30;;;;;;;4.95;52.58;98120.59;8336383;28;20196;-79
2021/01/19 05:57:40;;;;;;;6.30;2.70;;;;;;;5.18;52.30;98122.69;8337300;28;20197;-79
2021/01/19 06:01:43;;;;;;;5.47;2.30;;;;;;;5.07;52.25;98102.38;8337036;28;20566;-79
2021/01/19 06:05:46;;;;;;;4.93;2.10;;;;;;;5.26;52.02;98108.84;8339284;28;20196;-79
2021/01/19 06:09:48;;;;;;;4.70;1.97;;;;;;;5.11;52.82;98095.47;8288016;28;20233;-78
2021/01/19 06:13:50;;;;;;;4.53;2.30;;;;;;;5.23;52.83;98097.78;8268547;28;20322;-78
2021/01/19 06:17:52;;;;;;;7.20;2.20;;;;;;;5.07;52.93;98094.69;8268198;28;20256;-78
2021/01/19 06:21:58;;;;;;;4.07;2.10;;;;;;;5.22;53.00;98088.41;8268941;28;20213;-78
2021/01/19 06:26:06;;;;;;;4.57;2.23;;;;;;;5.10;53.08;98089.47;8269039;28;20565;-78
2021/01/19 06:30:11;;;;;;;5.60;2.27;;;;;;;5.14;53.29;98083.44;8273606;28;20233;-79
2021/01/19 06:34:24;;;;;;;5.33;2.40;;;;;;;5.01;53.20;98082.81;8269334;28;20218;-79
2021/01/19 06:38:27;;;;;;;4.80;2.13;;;;;;;5.05;53.24;98075.91;8272872;28;20652;-79
2021/01/19 06:42:30;;;;;;;3.70;2.20;;;;;;;5.14;53.52;98068.03;8273872;28;20201;-79
2021/01/19 06:46:32;;;;;;;3.83;2.27;;;;;;;5.12;53.44;98054.34;8272263;28;20209;-79
2021/01/19 06:50:37;;;;;;;5.23;2.37;;;;;;;5.07;53.60;98056.19;8275138;28;20593;-79
2021/01/19 06:55:05;;;;;;;5.67;2.50;;;;;;;4.90;53.73;98053.97;8291262;28;20263;-78
2021/01/19 06:59:08;;;;;;;6.93;3.30;;;;;;;4.99;53.71;98038.38;8293532;28;20212;-78
2021/01/19 07:03:30;;;;;;;4.97;2.93;;;;;;;5.11;53.58;98041.56;8300346;28;20576;-79
2021/01/19 07:07:39;;;;;;;6.57;3.40;;;;;;;5.08;53.65;98024.47;8313056;28;20239;-79
2021/01/19 07:12:06;;;;;;;4.80;3.10;;;;;;;4.79;53.85;98035.38;8366474;28;20717;-78
2021/01/19 07:16:09;;;;;;;6.67;2.63;;;;;;;4.95;53.81;98035.88;8364522;28;20192;-79
2021/01/19 07:20:13;;;;;;;5.70;2.07;;;;;;;4.82;53.99;98032.75;8337032;28;20271;-78
2021/01/19 07:24:21;;;;;;;5.97;2.93;;;;;;;4.92;53.76;98025.69;8349345;28;20200;-79
2021/01/19 07:28:24;;;;;;;7.47;2.87;;;;;;;5.00;53.74;98031.50;8365847;28;20203;-79
2021/01/19 07:32:28;;;;;;;4.50;2.40;;;;;;;4.96;53.50;98023.03;8370378;28;20232;-79
2021/01/19 07:36:31;;;;;;;7.30;2.57;;;;;;;5.01;53.54;98026.34;8368848;28;20310;-79
2021/01/19 07:40:44;;;;;;;4.53;2.67;;;;;;;5.01;53.69;98013.53;8370159;28;20208;-79
2021/01/19 07:44:56;;;;;;;6.83;2.80;;;;;;;4.88;53.71;98018.06;8361115;28;20212;-79
2021/01/19 07:49:04;;;;;;;5.00;2.97;;;;;;;4.83;53.54;98012.16;8370165;28;20247;-79
2021/01/19 07:53:06;;;;;;;5.67;2.87;;;;;;;4.50;53.88;98006.84;8366836;28;20191;-78
2021/01/19 07:57:10;;;;;;;8.00;3.70;;;;;;;4.96;53.45;97996.53;8367874;28;20278;-79
2021/01/19 08:01:23;;;;;;;4.90;2.70;;;;;;;4.80;53.95;97996.84;8398558;28;20311;-80
2021/01/19 08:05:27;;;;;;;8.63;3.10;;;;;;;4.62;53.33;97995.47;8374850;28;20188;-79
2021/01/19 08:09:35;;;;;;;4.03;2.30;;;;;;;4.81;53.49;97984.84;8372434;28;20238;-77
2021/01/19 08:13:37;;;;;;;3.57;2.40;;;;;;;4.77;53.21;97991.78;8369909;28;20234;-77
2021/01/19 08:17:49;;;;;;;5.33;3.13;;;;;;;4.88;54.02;97979.56;8369886;28;20577;-77
2021/01/19 08:22:03;;;;;;;4.90;2.50;;;;;;;4.64;52.84;97973.22;8370429;28;20538;-78
2021/01/19 08:26:06;;;;;;;6.63;2.53;;;;;;;5.61;69.36;97977.94;8374960;28;20204;-80
2021/01/19 08:30:17;;;;;;;5.53;2.17;;;;;;;7.05;64.14;97975.78;8379196;28;20270;-80
2021/01/19 08:34:24;;;;;;;5.23;2.40;;;;;;;5.82;51.59;97958.56;8355649;28;20251;-78
2021/01/19 08:38:25;;;;;;;6.00;3.20;;;;;;;5.58;51.80;97957.44;8369705;28;20196;-78
2021/01/19 08:42:28;;;;;;;8.27;4.23;;;;;;;5.58;53.27;97953.16;8369149;28;20204;-77
2021/01/19 08:46:31;;;;;;;8.17;3.77;;;;;;;5.41;51.82;97957.88;8368013;28;20215;-78
2021/01/19 08:50:36;;;;;;;4.93;3.20;;;;;;;5.20;51.59;97949.78;8370843;28;20239;-78
2021/01/19 08:54:38;;;;;;;6.03;2.33;;;;;;;5.18;52.13;97951.53;8369223;28;20632;-78
2021/01/19 08:58:40;;;;;;;5.57;2.30;;;;;;;5.21;52.10;97941.19;8369144;28;20211;-78
2021/01/19 09:02:42;;;;;;;4.43;2.57;;;;;;;5.01;52.45;97931.38;8370503;28;20204;-78
2021/01/19 09:06:45;;;;;;;6.47;2.83;;;;;;;5.00;51.95;97923.72;8371352;28;20231;-78
2021/01/19 09:10:46;;;;;;;6.23;3.43;;;;;;;5.28;51.52;97914.50;8371599;28;20215;-78
2021/01/19 09:14:50;;;;;;;7.07;2.40;;;;;;;5.38;51.91;97909.13;8371764;28;20205;-78
2021/01/19 09:18:57;;;;;;;6.10;2.90;;;;;;;5.24;51.56;97905.19;8375488;28;20207;-77
2021/01/19 09:23:08;;;;;;;5.30;2.70;;;;;;;4.86;52.29;97885.53;8370546;28;20407;-78
2021/01/19 09:27:10;;;;;;;6.40;3.10;;;;;;;5.36;51.95;97892.91;8370575;28;20258;-78
2021/01/19 09:31:15;;;;;;;5.47;3.70;;;;;;;5.41;51.74;97889.34;8371654;28;20713;-78
2021/01/19 09:35:18;;;;;;;3.40;2.93;;;;;;;5.35;51.86;97880.94;8370432;28;20243;-78
2021/01/19 09:39:27;;;;;;;6.57;3.17;;;;;;;5.41;51.69;97873.94;8367511;28;20623;-77
2021/01/19 09:43:29;;;;;;;5.83;2.97;;;;;;;5.17;51.77;97859.97;8367428;28;20196;-78
2021/01/19 09:47:31;;;;;;;6.10;3.17;;;;;;;5.49;51.28;97860.91;8368566;28;20200;-77
2021/01/19 09:51:33;;;;;;;8.40;3.80;;;;;;;5.47;51.46;97855.81;8369133;28;20272;-78
2021/01/19 09:55:37;;;;;;;4.20;2.83;;;;;;;5.49;50.74;97848.06;8367874;28;20204;-77
2021/01/19 09:59:40;;;;;;;5.27;3.40;;;;;;;6.14;49.10;97841.22;8369496;28;20426;-77
2021/01/19 10:03:41;;;;;;;5.70;3.07;;;;;;;5.73;50.66;97840.59;8371188;28;20214;-77
2021/01/19 10:07:43;;;;;;;6.50;3.10;;;;;;;5.65;50.16;97828.81;8371204;28;20231;-78
2021/01/19 10:11:45;;;;;;;6.57;2.90;;;;;;;5.45;50.51;97821.63;8371576;28;20302;-78
2021/01/19 10:15:47;;;;;;;6.07;3.07;;;;;;;5.42;51.42;97820.84;8371360;28;20200;-78
2021/01/19 10:19:49;;;;;;;5.20;2.83;;;;;;;5.46;50.24;97807.03;8371526;28;20671;-78
2021/01/19 10:23:51;;;;;;;6.83;3.40;;;;;;;5.56;50.82;97800.78;8373248;28;20204;-78
2021/01/19 10:27:56;;;;;;;6.73;3.97;;;;;;;5.53;50.78;97782.06;8372583;28;20200;-78
2021/01/19 10:32:00;;;;;;;6.17;3.80;;;;;;;5.55;50.87;97785.41;8394797;28;20231;-79
2021/01/19 10:36:06;;;;;;;4.70;3.27;;;;;;;5.57;50.49;97761.38;8412122;28;20203;-79
2021/01/19 10:40:13;;;;;;;5.40;3.50;;;;;;;5.79;50.72;97759.06;8406890;28;20199;-79
2021/01/19 10:44:16;;;;;;;6.70;3.70;;;;;;;5.66;50.47;97752.56;8401704;28;20203;-79
2021/01/19 10:48:19;;;;;;;5.83;3.67;;;;;;;5.49;51.33;97730.75;8403655;28;20207;-78
2021/01/19 10:52:23;;;;;;;5.93;3.60;;;;;;;5.43;51.39;97730.09;8404807;28;20263;-81
2021/01/19 10:56:25;;;;;;;6.53;3.37;;;;;;;5.52;52.26;97726.41;8406045;28;20210;-79
2021/01/19 11:00:28;;;;;;;6.33;3.30;;;;;;;5.32;53.09;97706.44;8380327;28;20220;-80
2021/01/19 11:04:30;;;;;;;7.03;3.30;;;;;;;5.00;54.59;97706.38;8362611;28;20215;-78
2021/01/19 11:08:31;;;;;;;6.85;4.25;;;;;;;5.81;53.72;97684.47;8351889;28;20427;-79
2021/01/19 11:12:33;;;;;;;9.87;4.57;;;;;;;5.31;55.54;97671.34;8361039;28;20244;-79
2021/01/19 11:16:38;;;;;;;6.93;3.70;;;;;;;5.46;55.46;97671.78;8364410;28;20227;-78
2021/01/19 11:20:41;;;;;;;6.43;3.20;;;;;;;5.11;55.57;97666.78;8357968;28;20271;-78
2021/01/19 11:24:42;;;;;;;9.37;4.83;;;;;;;5.17;56.54;97662.31;8336583;28;20200;-79
2021/01/19 11:28:44;;;;;;;5.97;4.00;;;;;;;5.32;55.66;97663.63;8337210;28;20548;-78
2021/01/19 11:32:47;;;;;;;9.87;5.63;;;;;;;5.34;55.84;97668.72;8334645;28;20240;-78
2021/01/19 11:36:49;;;;;;;8.27;3.43;;;;;;;5.18;55.56;97650.31;8360122;28;20204;-77
2021/01/19 11:40:51;;;;;;;7.80;3.70;;;;;;;5.20;56.42;97644.25;8371064;28;20203;-78
2021/01/19 11:44:55;;;;;;;6.67;3.13;;;;;;;5.33;55.63;97652.47;8374199;28;20282;-78
2021/01/19 11:49:00;;;;;;;7.27;2.97;;;;;;;5.09;56.34;97638.56;8373408;28;20222;-78
2021/01/19 11:53:01;;;;;;;8.60;3.47;;;;;;;4.93;57.24;97638.16;8373226;28;20242;-77
2021/01/19 11:57:03;;;;;;;7.40;3.30;;;;;;;5.34;57.01;97628.47;8371592;28;20257;-78
2021/01/19 12:01:05;;;;;;;7.20;3.10;;;;;;;4.98;58.32;97633.72;8371153;28;20257;-77
2021/01/19 12:05:09;;;;;;;6.37;3.13;;;;;;;4.97;59.11;97613.25;8371267;28;20697;-78
2021/01/19 12:09:12;;;;;;;8.77;3.70;;;;;;;5.04;59.38;97607.06;8371934;28;20231;-78
2021/01/19 12:13:14;;;;;;;9.30;4.17;;;;;;;4.92;60.36;97590.28;8370440;28;20283;-78
2021/01/19 12:17:15;;;;;;;4.50;3.00;;;;;;;4.79;60.99;97578.66;8370232;28;20258;-78
2021/01/19 12:21:19;;;;;;;5.80;3.63;;;;;;;4.92;60.34;97576.63;8367066;28;20277;-78
2021/01/19 12:25:21;;;;;;;6.60;3.50;;;;;;;4.63;61.67;97576.53;8369969;28;20269;-78
2021/01/19 12:29:24;;;;;;;5.23;3.80;;;;;;;4.78;61.42;97551.31;8370177;28;20215;-78
2021/01/19 12:33:26;;;;;;;6.33;3.87;;;;;;;4.87;60.96;97526.28;8370570;28;20254;-78
2021/01/19 12:37:31;;;;;;;8.03;3.60;;;;;;;4.75;61.03;97518.91;8348676;28;20251;-77
2021/01/19 12:41:33;;;;;;;7.07;3.60;;;;;;;4.64;61.48;97508.09;8361043;28;20200;-77
2021/01/19 12:45:35;;;;;;;8.27;3.40;;;;;;;4.73;61.49;97507.03;8369610;28;20206;-78
2021/01/19 12:49:37;;;;;;;7.43;3.93;;;;;;;4.82;61.47;97496.50;8370172;28;20227;-77
2021/01/19 12:53:40;;;;;;;6.97;3.60;;;;;;;4.74;62.14;97490.72;8370433;28;20199;-78
2021/01/19 12:57:41;;;;;;;6.93;3.87;;;;;;;4.90;61.43;97479.16;8371066;28;20227;-79
2021/01/19 13:01:43;;;;;;;5.23;3.63;;;;;;;4.88;61.73;97473.22;8370632;28;20226;-77
2021/01/19 13:05:45;;;;;;;7.73;3.70;;;;;;;4.82;61.23;97463.16;8358819;28;20200;-78
2021/01/19 13:09:50;;;;;;;6.73;3.60;;;;;;;4.84;61.34;97462.19;8372413;28;20632;-77
2021/01/19 13:13:51;;;;;;;7.07;3.77;;;;;;;4.81;61.57;97459.72;8373061;28;20196;-78
2021/01/19 13:17:53;;;;;;;6.73;3.37;;;;;;;4.79;61.20;97460.66;8369827;28;20207;-79
2021/01/19 13:21:58;;;;;;;7.83;3.90;;;;;;;4.89;61.62;97452.66;8369887;28;20294;-77
2021/01/19 13:26:01;;;;;;;7.00;3.90;;;;;;;4.69;62.06;97455.78;8370715;28;20276;-77
2021/01/19 13:30:04;;;;;;;8.43;4.77;;;;;;;4.86;61.71;97454.47;8369367;28;20258;-78
2021/01/19 13:34:05;;;;;;;9.17;3.90;;;;;;;4.92;61.98;97446.59;8369845;28;20227;-77
2021/01/19 13:38:10;;;;;;;5.90;3.83;;;;;;;4.87;62.11;97451.00;8368867;28;20354;-78
2021/01/19 13:42:13;;;;;;;6.33;4.40;;;;;;;4.92;62.08;97433.75;8369587;28;20207;-78
2021/01/19 13:46:15;;;;;;;8.17;5.23;;;;;;;4.95;62.33;97436.25;8369192;28;20678;-78
2021/01/19 13:50:17;;;;;;;8.60;4.20;;;;;;;4.97;62.27;97429.34;8369818;28;20223;-77
2021/01/19 13:54:22;;;;;;;7.63;3.63;;;;;;;5.02;62.11;97430.00;8369357;28;20200;-78
2021/01/19 13:58:24;;;;;;;5.53;2.80;;;;;;;5.02;61.83;97434.31;8368255;28;20210;-77
2021/01/19 14:02:26;;;;;;;4.90;2.47;;;;;;;5.05;62.37;97434.22;8367390;28;20204;-77
2021/01/19 14:06:28;;;;;;;5.60;2.57;;;;;;;5.08;62.65;97423.84;8370782;28;20221;-77
2021/01/19 14:10:30;;;;;;;4.13;2.33;;;;;;;5.26;62.26;97437.84;8369798;28;20571;-78
2021/01/19 14:14:32;;;;;;;5.03;2.30;;;;;;;5.29;62.43;97440.31;8370118;28;20219;-78
2021/01/19 14:18:34;;;;;;;5.73;2.93;;;;;;;5.17;62.56;97438.13;8370871;28;20571;-78
2021/01/19 14:22:36;;;;;;;4.90;2.43;;;;;;;4.99;64.04;97426.69;8370996;28;20203;-78
2021/01/19 14:26:37;;;;;;;4.47;3.17;;;;;;;5.10;64.16;97437.47;8368252;28;20211;-78
2021/01/19 14:30:40;;;;;;;3.07;1.83;;;;;;;5.26;64.40;97438.69;8368312;28;20223;-78
2021/01/19 14:34:42;;;;;;;3.60;1.80;;;;;;;5.27;64.41;97436.94;8367845;28;20223;-78
2021/01/19 14:38:59;;;;;;;6.97;2.77;;;;;;;5.34;64.64;97443.56;8369404;28;20264;-78
2021/01/19 14:43:01;;;;;;;5.00;2.90;;;;;;;5.32;65.06;97444.53;8371623;28;20219;-78
2021/01/19 14:47:03;;;;;;;4.03;2.37;;;;;;;5.41;64.56;97450.22;8367712;28;20200;-78
2021/01/19 14:51:05;;;;;;;5.80;2.80;;;;;;;5.43;64.88;97451.00;8367563;28;20230;-78
2021/01/19 14:55:09;;;;;;;4.83;2.20;;;;;;;5.46;64.93;97462.88;8371005;28;20248;-78
2021/01/19 14:59:11;;;;;;;6.87;3.80;;;;;;;5.48;64.81;97454.25;8371046;28;20203;-78
2021/01/19 15:03:14;;;;;;;15.90;9.40;;;;;;;5.44;64.98;97455.22;8369019;28;20214;-78
2021/01/19 15:07:16;;;;;;;9.37;5.30;;;;;;;5.30;65.74;97454.84;8368622;28;20224;-78
2021/01/19 15:11:17;;;;;;;7.50;3.23;;;;;;;5.19;66.18;97447.47;8366816;28;20224;-78
2021/01/19 15:15:20;;;;;;;6.80;3.33;;;;;;;5.17;65.84;97454.38;8370152;28;20208;-78
2021/01/19 15:19:23;;;;;;;5.30;3.10;;;;;;;5.15;66.39;97448.44;8374629;28;20195;-77
2021/01/19 15:23:25;;;;;;;4.67;2.53;;;;;;;5.24;66.26;97450.72;8377063;28;20207;-77
2021/01/19 15:27:28;;;;;;;5.23;2.13;;;;;;;5.23;66.40;97454.16;8375733;28;20212;-78
2021/01/19 15:31:30;;;;;;;4.13;2.20;;;;;;;5.18;66.82;97448.38;8374485;28;20238;-78
2021/01/19 15:35:34;;;;;;;3.53;2.50;;;;;;;5.06;66.79;97452.16;8374891;28;20737;-77
2021/01/19 15:39:36;;;;;;;3.40;1.93;;;;;;;5.08;67.50;97454.66;8340026;28;20208;-78
2021/01/19 15:43:38;;;;;;;6.83;2.90;;;;;;;5.12;67.70;97461.38;8337321;28;20201;-77
2021/01/19 15:47:41;;;;;;;4.60;2.37;;;;;;;5.22;67.33;97464.50;8335887;28;20211;-77
2021/01/19 15:51:45;;;;;;;3.63;2.17;;;;;;;5.16;66.69;97455.28;8336554;28;20220;-77
2021/01/19 15:55:47;;;;;;;4.13;2.70;;;;;;;5.05;67.79;97465.03;8358343;28;20199;-77
2021/01/19 15:59:49;;;;;;;3.73;2.30;;;;;;;5.03;67.89;97471.94;8368427;28;20230;-77
2021/01/19 16:03:50;;;;;;;3.47;2.17;;;;;;;5.22;67.37;97473.06;8371230;28;20222;-77
2021/01/19 16:07:53;;;;;;;4.47;2.10;;;;;;;5.11;67.60;97462.25;8372292;28;20220;-77
2021/01/19 16:11:58;;;;;;;6.33;2.83;;;;;;;5.26;67.50;97463.53;8372204;28;20235;-77
2021/01/19 16:16:00;;;;;;;3.90;2.30;;;;;;;5.46;66.68;97471.44;8372502;28;20277;-77
2021/01/19 16:20:02;;;;;;;5.67;2.63;;;;;;;5.35;66.99;97475.22;8370993;28;20203;-76
2021/01/19 16:24:06;;;;;;;2.97;2.20;;;;;;;5.37;67.21;97478.56;8371096;28;20218;-76
2021/01/19 16:28:07;;;;;;;5.20;2.40;;;;;;;5.37;66.86;97478.56;8370627;28;20188;-78
2021/01/19 16:32:14;;;;;;;6.07;2.90;;;;;;;5.20;67.72;97474.81;8371396;28;20231;-78
2021/01/19 16:36:24;;;;;;;4.83;3.10;;;;;;;5.27;67.18;97481.47;8371558;28;20192;-76
2021/01/19 16:40:27;;;;;;;9.17;5.63;;;;;;;5.39;67.25;97479.41;8371182;28;20568;-76
2021/01/19 16:44:28;;;;;;;7.73;4.40;;;;;;;5.34;67.18;97471.81;8370737;28;20210;-77
2021/01/19 16:48:30;;;;;;;4.50;3.00;;;;;;;5.33;67.55;97485.56;8372284;28;20657;-76
2021/01/19 16:52:35;;;;;;;6.70;2.80;;;;;;;5.19;68.03;97462.03;8373131;28;20236;-78
2021/01/19 16:56:38;;;;;;;5.70;2.80;;;;;;;5.13;67.75;97475.06;8370056;28;20673;-78
2021/01/19 17:00:41;;;;;;;5.67;2.93;;;;;;;5.17;68.37;97484.34;8371066;28;20208;-78
2021/01/19 17:04:42;;;;;;;9.47;4.57;;;;;;;5.03;68.14;97493.28;8367959;28;20223;-78
2021/01/19 17:08:44;;;;;;;6.60;3.90;;;;;;;5.09;68.30;97490.53;8369460;28;20619;-78
2021/01/19 17:12:47;;;;;;;5.87;3.77;;;;;;;5.22;68.20;97491.03;8369187;28;20219;-79
2021/01/19 17:16:50;;;;;;;6.13;3.10;;;;;;;5.20;67.99;97474.00;8369201;28;20219;-78
2021/01/19 17:20:52;;;;;;;4.93;2.90;;;;;;;5.17;68.05;97490.31;8372271;28;20558;-79
2021/01/19 17:24:54;;;;;;;4.43;2.87;;;;;;;5.19;68.23;97493.66;8370002;28;20567;-77
2021/01/19 17:28:56;;;;;;;4.80;3.00;;;;;;;5.20;68.33;97486.81;8369255;28;20253;-78
2021/01/19 17:32:58;;;;;;;4.07;2.83;;;;;;;5.23;68.39;97500.38;8370388;28;20228;-77
2021/01/19 17:37:02;;;;;;;3.80;2.67;;;;;;;5.21;68.79;97489.31;8355639;28;20223;-77
2021/01/19 17:41:04;;;;;;;4.57;2.77;;;;;;;5.43;68.05;97479.25;8368951;28;20199;-77
2021/01/19 17:45:08;;;;;;;4.73;2.90;;;;;;;5.33;68.60;97493.28;8367809;28;20207;-77
2021/01/19 17:49:10;;;;;;;3.90;2.90;;;;;;;5.38;68.18;97491.38;8367532;28;20227;-77
2021/01/19 17:53:14;;;;;;;5.67;2.90;;;;;;;5.33;68.64;97484.69;8367846;28;20219;-77
2021/01/19 17:57:16;;;;;;;5.77;2.70;;;;;;;5.24;68.95;97496.13;8367105;28;20660;-76
2021/01/19 18:01:18;;;;;;;6.43;3.27;;;;;;;5.18;69.44;97492.00;8366808;28;20204;-77
2021/01/19 18:05:20;;;;;;;7.33;4.07;;;;;;;5.28;69.21;97493.41;8368491;28;20207;-77
2021/01/19 18:09:22;;;;;;;6.63;3.43;;;;;;;5.28;69.21;97492.56;8366920;28;20338;-77
2021/01/19 18:13:24;;;;;;;5.50;2.93;;;;;;;5.36;68.81;97497.47;8367329;28;20701;-77
2021/01/19 18:17:27;;;;;;;6.27;3.27;;;;;;;5.42;68.46;97485.25;8367258;28;20647;-77
2021/01/19 18:21:29;;;;;;;5.97;3.87;;;;;;;5.36;68.98;97495.72;8366745;28;20230;-77
2021/01/19 18:25:31;;;;;;;4.30;3.10;;;;;;;5.43;68.61;97502.34;8367174;28;20199;-77
2021/01/19 18:29:33;;;;;;;9.07;5.33;;;;;;;5.49;68.91;97509.03;8367370;28;20203;-77
2021/01/19 18:33:35;;;;;;;5.20;3.60;;;;;;;5.51;68.46;97517.53;8366369;28;20231;-76
2021/01/19 18:37:37;;;;;;;4.80;3.40;;;;;;;5.35;69.50;97524.00;8356662;28;20211;-76
2021/01/19 18:41:39;;;;;;;9.57;4.57;;;;;;;5.54;68.78;97530.28;8366888;28;20211;-76
2021/01/19 18:45:41;;;;;;;5.10;3.17;;;;;;;5.43;68.93;97522.06;8365639;28;20200;-77
2021/01/19 18:49:44;;;;;;;5.57;3.70;;;;;;;5.59;68.67;97533.53;8365577;28;20204;-77
2021/01/19 18:53:46;;;;;;;4.63;3.00;;;;;;;5.48;69.10;97525.31;8365292;28;20235;-77
2021/01/19 18:57:47;;;;;;;7.40;3.30;;;;;;;5.65;68.79;97527.34;8366184;28;20204;-77
2021/01/19 19:01:49;;;;;;;3.83;2.90;;;;;;;5.70;68.76;97517.78;8365398;28;20239;-77
2021/01/19 19:05:52;;;;;;;4.00;2.83;;;;;;;5.62;69.22;97525.75;8366326;28;20286;-77
2021/01/19 19:09:54;;;;;;;3.47;2.80;;;;;;;5.65;69.36;97522.22;8313381;28;20236;-77
2021/01/19 19:13:56;;;;;;;3.77;2.73;;;;;;;5.59;70.21;97518.13;8302771;28;20220;-77
2021/01/19 19:17:58;;;;;;;5.33;2.73;;;;;;;5.61;70.06;97512.94;8304188;28;20197;-77
2021/01/19 19:22:01;;;;;;;4.43;3.10;;;;;;;5.71;69.96;97509.16;8303773;28;20201;-78